Time;durP1;ratioP1;P1;durP2;ratioP2;P2;SDS_P1;SDS_P2;PMS_P1;PMS_P2;Temp;Humidity;BMP_temperature;BMP_pressure;BME280_temperature;BME280_humidity;BME280_pressure;Samples;Min_cycle;Max_cycle;Signal;HPM_P1;HPM_P2
2021/08/11 00:00:38;;;;;;;19.08;12.40;;;;;;;20.29;81.48;99915.72;5033937;28;20033;-76
2021/08/11 00:03:04;;;;;;;18.67;12.30;;;;;;;20.19;81.72;99891.53;5035406;28;20049;-76
2021/08/11 00:05:30;;;;;;;15.95;11.50;;;;;;;20.34;81.34;99919.00;5034971;28;20041;-74
2021/08/11 00:07:55;;;;;;;16.25;12.60;;;;;;;20.15;81.53;99885.53;5036946;28;20037;-75
2021/08/11 00:10:21;;;;;;;21.75;11.93;;;;;;;20.33;81.39;99909.38;5037532;28;20037;-78
2021/08/11 00:12:47;;;;;;;19.63;11.77;;;;;;;20.27;81.32;99899.09;5035797;28;20045;-79
2021/08/11 00:15:13;;;;;;;18.38;11.90;;;;;;;20.34;81.57;99912.84;5004493;28;20540;-77
2021/08/11 00:17:39;;;;;;;19.63;11.95;;;;;;;20.19;81.41;99901.25;5048822;28;20025;-78
2021/08/11 00:20:06;;;;;;;19.17;12.20;;;;;;;20.17;81.22;99912.75;5050467;28;20045;-77
2021/08/11 00:22:32;;;;;;;15.60;12.00;;;;;;;20.22;81.50;99916.94;5012254;28;20412;-77
2021/08/11 00:24:58;;;;;;;16.05;11.43;;;;;;;20.22;81.45;99922.22;5041831;28;20037;-78
2021/08/11 00:27:23;;;;;;;23.77;11.68;;;;;;;20.24;81.29;99917.72;5035531;28;20684;-76
2021/08/11 00:29:49;;;;;;;20.70;12.70;;;;;;;20.25;81.10;99935.28;5036922;28;20036;-76
2021/08/11 00:32:15;;;;;;;19.52;11.63;;;;;;;20.22;81.21;99936.28;5056365;28;20044;-77
2021/08/11 00:34:42;;;;;;;19.02;11.38;;;;;;;20.14;81.65;99920.81;5056424;28;20036;-77
2021/08/11 00:37:09;;;;;;;19.15;11.70;;;;;;;20.22;81.40;99928.38;5047027;28;20041;-76
2021/08/11 00:39:39;;;;;;;24.97;10.77;;;;;;;20.23;81.31;99932.72;5032584;28;20098;-78
2021/08/11 00:42:07;;;;;;;16.33;11.35;;;;;;;20.20;81.42;99911.72;5016514;28;20092;-76
2021/08/11 00:44:34;;;;;;;19.88;11.38;;;;;;;20.15;81.45;99904.03;5017007;28;20037;-78
2021/08/11 00:47:04;;;;;;;18.90;11.80;;;;;;;20.21;81.22;99904.66;5016557;28;20463;-77
2021/08/11 00:49:30;;;;;;;20.45;11.70;;;;;;;20.21;81.34;99902.00;5033440;28;20048;-78
2021/08/11 00:52:04;;;;;;;21.52;11.15;;;;;;;20.11;81.29;99883.09;5033455;28;20428;-76
2021/08/11 00:54:31;;;;;;;24.90;11.80;;;;;;;20.17;81.24;99896.91;5019638;28;20041;-77
2021/08/11 00:56:57;;;;;;;22.23;11.82;;;;;;;20.14;81.11;99896.16;5033027;28;20067;-78
2021/08/11 00:59:25;;;;;;;21.90;12.35;;;;;;;20.08;81.22;99897.31;5016297;28;20049;-78
2021/08/11 01:01:52;;;;;;;22.27;12.13;;;;;;;20.17;81.15;99901.31;5033168;28;20044;-77
2021/08/11 01:04:20;;;;;;;21.17;11.68;;;;;;;20.16;81.53;99908.38;5032922;28;20052;-78
2021/08/11 01:06:49;;;;;;;21.33;13.35;;;;;;;20.15;81.09;99903.16;5034449;28;20103;-77
2021/08/11 01:09:18;;;;;;;22.88;12.93;;;;;;;20.08;81.38;99892.03;5017799;28;20095;-76
2021/08/11 01:11:53;;;;;;;21.73;12.90;;;;;;;20.06;81.37;99888.59;5017080;28;20143;-77
2021/08/11 01:14:21;;;;;;;22.05;13.27;;;;;;;20.10;81.54;99902.50;5000767;28;20060;-78
2021/08/11 01:16:48;;;;;;;24.80;12.82;;;;;;;20.00;81.32;99895.03;5034018;28;20052;-75
2021/08/11 01:19:15;;;;;;;15.75;11.88;;;;;;;20.11;81.35;99918.31;5031534;28;20048;-77
2021/08/11 01:21:51;;;;;;;26.23;13.27;;;;;;;20.11;81.44;99901.59;5033202;28;20076;-75
2021/08/11 01:24:52;;;;;;;21.27;12.73;;;;;;;20.07;81.52;99894.75;5033802;28;20064;-77
2021/08/11 01:27:55;;;;;;;21.15;12.23;;;;;;;20.16;81.47;99897.81;5033287;28;20049;-77
2021/08/11 01:30:42;;;;;;;20.58;13.02;;;;;;;20.17;81.46;99903.94;5032700;28;20524;-77
2021/08/11 01:33:30;;;;;;;19.58;13.00;;;;;;;20.16;81.54;99897.81;5016330;28;20046;-78
2021/08/11 01:36:06;;;;;;;19.40;12.27;;;;;;;20.10;81.25;99882.25;5016865;28;20063;-77
2021/08/11 01:38:35;;;;;;;17.17;11.60;;;;;;;20.18;81.62;99895.09;5013577;28;20038;-76
2021/08/11 01:41:04;;;;;;;19.33;12.77;;;;;;;20.18;81.40;99884.53;5003168;28;20106;-77
2021/08/11 01:43:39;;;;;;;21.42;13.05;;;;;;;20.21;81.17;99896.72;5033537;28;20045;-77
2021/08/11 01:46:09;;;;;;;17.67;12.40;;;;;;;20.20;81.38;99887.97;5000161;28;20128;-77
2021/08/11 01:48:37;;;;;;;16.52;12.45;;;;;;;20.23;81.31;99895.75;5017411;28;20045;-77
2021/08/11 01:51:04;;;;;;;20.20;13.77;;;;;;;20.15;80.75;99892.59;5033090;28;20037;-77
2021/08/11 01:53:32;;;;;;;21.35;13.02;;;;;;;20.04;81.40;99871.13;5019618;28;20072;-77
2021/08/11 01:56:01;;;;;;;21.75;14.10;;;;;;;20.06;81.10;99870.13;5004799;28;20041;-76
2021/08/11 01:58:37;;;;;;;20.50;12.52;;;;;;;20.15;81.54;99887.31;5037122;28;20479;-78
2021/08/11 02:01:09;;;;;;;21.60;12.38;;;;;;;20.20;81.35;99887.09;5038016;28;20041;-78
2021/08/11 02:03:37;;;;;;;20.27;11.68;;;;;;;20.22;81.67;99886.09;5017817;28;20041;-77
2021/08/11 02:06:05;;;;;;;21.25;13.05;;;;;;;20.24;81.29;99886.88;5034911;28;20103;-78
2021/08/11 02:08:32;;;;;;;14.18;11.52;;;;;;;20.28;81.54;99888.47;5034275;28;20045;-77
2021/08/11 02:11:00;;;;;;;21.35;13.02;;;;;;;20.32;81.28;99894.44;5041792;28;20512;-77
2021/08/11 02:13:28;;;;;;;16.75;12.93;;;;;;;20.32;81.32;99894.44;5038520;28;20022;-75
2021/08/11 02:15:54;;;;;;;18.42;12.43;;;;;;;20.30;81.36;99891.00;5047436;28;20037;-75
2021/08/11 02:18:21;;;;;;;25.25;14.23;;;;;;;20.31;81.15;99900.66;5040111;28;20075;-77
2021/08/11 02:20:52;;;;;;;27.80;15.67;;;;;;;20.30;81.01;99902.41;4989873;28;20034;-74
2021/08/11 02:23:18;;;;;;;24.67;14.13;;;;;;;20.29;81.24;99902.50;4997102;28;20092;-76
2021/08/11 02:25:54;;;;;;;23.48;15.63;;;;;;;20.28;81.15;99916.66;4997100;28;20081;-75
2021/08/11 02:28:55;;;;;;;21.85;15.02;;;;;;;20.27;80.96;99914.94;4987967;28;20048;-76
2021/08/11 02:31:56;;;;;;;23.02;15.13;;;;;;;20.26;80.85;99915.84;5016461;28;20131;-78
2021/08/11 02:35:03;;;;;;;22.98;15.35;;;;;;;20.21;81.06;99917.84;5038463;28;20101;-77
2021/08/11 02:37:37;;;;;;;22.20;13.85;;;;;;;20.00;81.31;99887.13;5048461;28;20037;-76
2021/08/11 02:40:15;;;;;;;27.00;14.50;;;;;;;20.19;80.95;99923.22;5035427;28;20048;-79
2021/08/11 02:42:45;;;;;;;21.25;15.02;;;;;;;20.15;81.29;99922.53;5034549;28;20513;-77
2021/08/11 02:45:18;;;;;;;24.33;15.23;;;;;;;20.08;81.31;99913.16;5033073;28;20495;-75
2021/08/11 02:47:47;;;;;;;22.10;13.93;;;;;;;20.06;80.86;99919.47;5032934;28;20447;-76
2021/08/11 02:50:15;;;;;;;18.27;13.23;;;;;;;19.90;81.01;99908.75;5031992;28;20524;-76
2021/08/11 02:52:46;;;;;;;24.13;13.65;;;;;;;20.00;81.25;99926.72;5016864;28;20064;-78
2021/08/11 02:55:12;;;;;;;19.92;13.48;;;;;;;19.98;81.54;99925.94;5033266;28;20049;-77
2021/08/11 02:57:39;;;;;;;19.00;12.52;;;;;;;20.00;81.52;99924.09;5035112;28;20064;-76
2021/08/11 03:00:07;;;;;;;19.10;11.80;;;;;;;20.05;81.56;99929.16;5018545;28;20038;-78
2021/08/11 03:02:33;;;;;;;17.95;12.40;;;;;;;20.03;81.34;99923.06;5018149;28;20416;-78
2021/08/11 03:05:01;;;;;;;17.08;12.13;;;;;;;20.05;81.38;99933.59;5034750;28;20049;-78
2021/08/11 03:07:28;;;;;;;19.85;11.75;;;;;;;20.09;81.29;99941.28;5033972;28;20473;-77
2021/08/11 03:09:54;;;;;;;15.18;11.13;;;;;;;20.17;81.76;99936.53;5015812;28;20468;-79
2021/08/11 03:12:21;;;;;;;15.80;11.45;;;;;;;20.13;81.61;99924.38;5032132;28;20481;-78
2021/08/11 03:14:48;;;;;;;14.40;10.57;;;;;;;20.32;81.57;99950.75;5032814;28;20525;-77
2021/08/11 03:17:15;;;;;;;20.13;10.77;;;;;;;20.34;81.57;99934.88;5017146;28;20080;-77
2021/08/11 03:19:43;;;;;;;13.70;10.55;;;;;;;20.35;81.28;99931.28;5013108;28;20076;-80
2021/08/11 03:22:10;;;;;;;16.30;12.65;;;;;;;20.41;81.07;99941.53;4995630;28;20109;-80
2021/08/11 03:24:38;;;;;;;15.73;11.82;;;;;;;20.50;81.09;99939.41;4996426;28;20045;-81
2021/08/11 03:27:04;;;;;;;18.35;11.70;;;;;;;20.55;81.24;99945.34;5012596;28;20092;-79
2021/08/11 03:29:31;;;;;;;13.77;10.85;;;;;;;20.61;80.97;99958.25;5012203;28;20108;-79
2021/08/11 03:31:57;;;;;;;17.60;10.80;;;;;;;20.55;81.17;99946.19;5033177;28;20501;-81
2021/08/11 03:34:23;;;;;;;16.90;11.55;;;;;;;20.67;80.79;99973.81;5038235;28;20065;-81
2021/08/11 03:36:52;;;;;;;17.45;11.05;;;;;;;20.65;80.71;99959.81;5032606;28;20053;-79
2021/08/11 03:39:18;;;;;;;13.77;11.48;;;;;;;20.75;80.69;99976.06;5031862;28;20091;-82
2021/08/11 03:41:44;;;;;;;13.98;11.57;;;;;;;20.76;80.33;99978.69;5034551;28;20041;-82
2021/08/11 03:44:10;;;;;;;17.17;10.43;;;;;;;20.80;80.63;99978.53;5033895;28;20049;-78
2021/08/11 03:46:39;;;;;;;15.70;11.13;;;;;;;20.82;80.46;99996.03;5031961;28;20084;-80
2021/08/11 03:49:06;;;;;;;14.18;10.73;;;;;;;20.81;80.19;99982.91;5017226;28;20041;-83
2021/08/11 03:51:32;;;;;;;20.60;11.23;;;;;;;20.77;80.26;99974.25;5013293;28;20171;-79
2021/08/11 03:53:58;;;;;;;15.20;11.32;;;;;;;20.82;80.39;99985.47;5029262;28;20042;-84
2021/08/11 03:56:26;;;;;;;21.08;12.90;;;;;;;20.92;80.62;99999.09;4982579;28;20064;-79
2021/08/11 03:58:52;;;;;;;15.57;11.98;;;;;;;20.84;79.98;99982.75;4983446;28;20042;-80
2021/08/11 04:01:19;;;;;;;17.88;12.73;;;;;;;20.97;80.55;100002.38;5002658;28;20064;-77
2021/08/11 04:03:47;;;;;;;18.45;12.02;;;;;;;20.90;80.31;99987.72;5023619;28;20536;-78
2021/08/11 04:06:15;;;;;;;15.88;12.93;;;;;;;20.91;80.44;99984.16;5025529;28;20034;-78
2021/08/11 04:08:41;;;;;;;22.85;14.73;;;;;;;21.05;80.34;100004.63;5040902;28;20037;-80
2021/08/11 04:11:06;;;;;;;18.00;12.77;;;;;;;21.10;80.32;100010.56;5050743;28;20121;-76
2021/08/11 04:13:32;;;;;;;20.20;14.55;;;;;;;21.12;80.78;100014.00;5047098;28;20038;-77
2021/08/11 04:16:01;;;;;;;21.45;13.57;;;;;;;21.14;80.47;100014.78;5042579;28;20050;-77
2021/08/11 04:18:27;;;;;;;17.65;13.05;;;;;;;21.19;80.39;100018.03;5042212;28;20093;-77
2021/08/11 04:20:53;;;;;;;18.85;12.98;;;;;;;21.23;80.45;100018.75;5018419;28;20060;-80
2021/08/11 04:23:19;;;;;;;19.55;13.50;;;;;;;21.25;80.38;100016.88;5040610;28;20041;-77
2021/08/11 04:25:44;;;;;;;15.77;10.82;;;;;;;20.82;80.74;99950.25;5039191;28;20099;-77
2021/08/11 04:28:13;;;;;;;14.48;12.02;;;;;;;21.23;80.60;99997.59;5045570;28;20053;-75
2021/08/11 04:30:40;;;;;;;15.82;12.93;;;;;;;21.23;80.40;100000.22;5039751;28;20042;-79
2021/08/11 04:33:07;;;;;;;18.60;11.82;;;;;;;21.29;80.94;100005.22;5038892;28;20473;-77
2021/08/11 04:35:32;;;;;;;17.25;11.75;;;;;;;21.39;80.18;100012.69;5042775;28;20041;-80
2021/08/11 04:37:58;;;;;;;15.00;10.88;;;;;;;21.37;80.36;100000.38;5054660;28;20052;-77
2021/08/11 04:40:24;;;;;;;19.40;12.13;;;;;;;21.41;80.60;100014.31;5055533;28;20037;-80
2021/08/11 04:42:49;;;;;;;16.25;12.27;;;;;;;21.36;80.22;100001.31;5042774;28;20044;-79
2021/08/11 04:45:15;;;;;;;15.95;13.20;;;;;;;21.35;80.34;99996.09;5050736;28;20393;-76
2021/08/11 04:47:42;;;;;;;22.77;15.40;;;;;;;21.35;80.12;99989.00;5050829;28;20072;-79
2021/08/11 04:50:08;;;;;;;29.65;18.35;;;;;;;21.49;80.38;100000.69;5050475;28;20033;-80
2021/08/11 04:52:48;;;;;;;23.40;16.17;;;;;;;21.46;80.62;99987.63;5029738;28;20045;-81
2021/08/11 04:55:15;;;;;;;;;;;;;;;21.57;80.11;99995.00;5033268;28;20125;-78
2021/08/11 04:57:40;;;;;;;21.80;13.95;;;;;;;21.57;80.17;99987.06;5051201;28;19971;-79
2021/08/11 05:00:07;;;;;;;19.02;12.75;;;;;;;21.62;79.92;99996.50;5050852;28;20053;-81
2021/08/11 05:02:33;;;;;;;19.73;13.50;;;;;;;21.56;80.38;99988.84;5042704;28;20064;-80
2021/08/11 05:04:59;;;;;;;16.08;12.50;;;;;;;21.59;79.82;99990.50;5032840;28;20540;-77
2021/08/11 05:07:25;;;;;;;16.38;12.93;;;;;;;21.64;79.84;99997.28;5016908;28;20044;-78
2021/08/11 05:09:51;;;;;;;18.63;14.55;;;;;;;21.60;79.78;99979.81;5031376;28;20037;-80
2021/08/11 05:12:17;;;;;;;18.65;12.10;;;;;;;21.72;79.93;99990.75;5032816;28;20041;-77
2021/08/11 05:14:43;;;;;;;16.92;12.88;;;;;;;21.69;80.04;99978.50;5025983;28;20045;-78
2021/08/11 05:17:11;;;;;;;15.55;11.52;;;;;;;21.70;79.84;99971.44;5047115;28;20037;-78
2021/08/11 05:19:38;;;;;;;18.33;12.52;;;;;;;21.84;79.60;99976.84;5033680;28;20128;-79
2021/08/11 05:22:04;;;;;;;19.90;14.07;;;;;;;21.88;79.42;99967.81;5012714;28;20493;-79
2021/08/11 05:24:29;;;;;;;13.77;11.93;;;;;;;21.86;79.54;99963.50;5012261;28;20042;-78
2021/08/11 05:26:58;;;;;;;17.33;13.25;;;;;;;21.88;79.62;99969.56;5013798;28;20391;-79
2021/08/11 05:29:24;;;;;;;18.00;12.38;;;;;;;21.82;79.34;99952.22;5030601;28;20061;-82
2021/08/11 05:31:52;;;;;;;20.45;13.68;;;;;;;21.86;79.06;99950.25;5035289;28;20204;-77
2021/08/11 05:34:18;;;;;;;24.42;13.88;;;;;;;22.03;79.27;99971.44;5035630;28;20140;-78
2021/08/11 05:36:44;;;;;;;16.67;13.23;;;;;;;22.09;79.25;99973.72;5018957;28;20037;-80
2021/08/11 05:39:12;;;;;;;15.32;12.73;;;;;;;22.11;78.56;99969.19;5036569;28;20045;-78
2021/08/11 05:41:38;;;;;;;18.98;13.30;;;;;;;22.08;78.92;99960.56;5035078;28;20118;-76
2021/08/11 05:44:05;;;;;;;19.85;12.93;;;;;;;22.15;78.92;99963.72;5036844;28;20057;-76
2021/08/11 05:46:31;;;;;;;19.00;13.00;;;;;;;22.24;78.93;99966.72;5035274;28;20033;-79
2021/08/11 05:48:56;;;;;;;18.00;12.57;;;;;;;22.19;78.51;99955.53;5034237;28;20455;-77
2021/08/11 05:51:22;;;;;;;13.82;11.25;;;;;;;22.29;78.70;99968.28;5034069;28;20037;-79
2021/08/11 05:53:48;;;;;;;15.10;11.07;;;;;;;22.30;78.48;99949.63;5039062;28;20048;-80
2021/08/11 05:56:16;;;;;;;13.65;10.30;;;;;;;22.25;78.33;99943.75;5035266;28;21071;-77
2021/08/11 05:58:42;;;;;;;15.60;10.48;;;;;;;22.37;78.36;99953.66;5039172;28;20045;-78
2021/08/11 06:01:07;;;;;;;17.05;11.98;;;;;;;22.41;78.03;99947.25;5038247;28;20105;-82
2021/08/11 06:03:33;;;;;;;14.50;11.80;;;;;;;22.55;77.80;99949.16;5010725;28;20033;-78
2021/08/11 06:06:07;;;;;;;17.02;12.45;;;;;;;22.59;77.22;99954.28;5056446;28;20044;-82
2021/08/11 06:08:34;;;;;;;15.02;12.27;;;;;;;22.64;76.97;99963.69;5034227;28;20041;-77
2021/08/11 06:10:59;;;;;;;17.60;13.10;;;;;;;22.63;76.89;99961.97;5026200;28;20033;-81
2021/08/11 06:13:25;;;;;;;16.33;13.13;;;;;;;22.55;76.68;99951.81;5038244;28;20055;-80
2021/08/11 06:15:51;;;;;;;14.63;11.90;;;;;;;22.56;77.14;99958.81;5036557;28;20488;-77
2021/08/11 06:18:18;;;;;;;15.52;12.68;;;;;;;22.67;77.15;99955.56;5035603;28;20091;-82
2021/08/11 06:20:44;;;;;;;17.42;13.82;;;;;;;22.61;76.36;99955.06;5023907;28;20331;-81
2021/08/11 06:23:12;;;;;;;20.60;14.10;;;;;;;22.57;76.94;99957.00;5013575;28;20049;-78
2021/08/11 06:25:38;;;;;;;19.42;13.15;;;;;;;22.21;77.23;99926.31;4999168;28;20176;-77
2021/08/11 06:28:04;;;;;;;18.30;13.75;;;;;;;22.38;77.01;99952.72;5023028;28;20080;-79
2021/08/11 06:30:30;;;;;;;15.18;12.10;;;;;;;22.40;76.84;99947.31;5036450;28;20037;-79
2021/08/11 06:32:55;;;;;;;16.55;11.63;;;;;;;22.39;75.86;99949.13;5034366;28;20095;-79
2021/08/11 06:35:21;;;;;;;20.98;11.80;;;;;;;22.24;75.84;99964.09;5014021;28;20052;-79
2021/08/11 06:37:50;;;;;;;22.33;14.05;;;;;;;22.04;76.46;99953.72;5034107;28;20048;-78
2021/08/11 06:40:20;;;;;;;23.83;14.70;;;;;;;21.94;76.06;99956.88;5037325;28;20041;-80
2021/08/11 06:42:56;;;;;;;24.77;15.55;;;;;;;21.60;76.30;99936.63;5039298;28;20045;-79
2021/08/11 06:45:30;;;;;;;25.73;17.42;;;;;;;21.56;76.94;99935.91;5052092;28;20044;-79
2021/08/11 06:48:01;;;;;;;28.55;18.00;;;;;;;21.46;77.99;99943.47;5021784;28;20581;-78
2021/08/11 06:50:28;;;;;;;29.55;20.42;;;;;;;21.49;77.98;99948.59;5035478;28;20167;-78
2021/08/11 06:52:57;;;;;;;27.67;19.33;;;;;;;21.41;78.74;99937.53;5036804;28;20493;-78
2021/08/11 06:55:30;;;;;;;25.52;17.95;;;;;;;21.59;78.61;99956.91;5001635;28;20538;-80
2021/08/11 06:58:03;;;;;;;25.25;18.15;;;;;;;21.63;79.02;99952.34;5032973;28;20062;-79
2021/08/11 07:00:41;;;;;;;27.88;19.73;;;;;;;21.65;79.29;99940.75;5027239;28;20041;-78
2021/08/11 07:03:07;;;;;;;26.00;18.40;;;;;;;21.49;79.78;99898.31;5015895;28;20566;-81
2021/08/11 07:05:33;;;;;;;27.75;18.30;;;;;;;21.92;79.71;99949.94;5031100;28;20045;-82
2021/08/11 07:08:05;;;;;;;25.20;19.13;;;;;;;21.90;79.56;99944.75;5014418;28;20102;-79
2021/08/11 07:10:31;;;;;;;34.08;23.63;;;;;;;21.89;79.87;99945.69;5014488;28;20042;-79
2021/08/11 07:12:57;;;;;;;24.98;19.42;;;;;;;21.92;79.30;99945.50;4998548;28;20038;-80
2021/08/11 07:15:23;;;;;;;21.27;17.20;;;;;;;21.99;79.76;99950.47;5016625;28;20042;-77
2021/08/11 07:17:56;;;;;;;22.27;16.65;;;;;;;21.86;79.81;99929.94;5035147;28;20099;-78
2021/08/11 07:20:27;;;;;;;21.13;16.48;;;;;;;22.06;79.71;99947.41;5028842;28;20107;-80
2021/08/11 07:22:55;;;;;;;19.80;14.70;;;;;;;22.16;79.62;99941.59;5018583;28;20096;-78
2021/08/11 07:25:21;;;;;;;20.40;15.48;;;;;;;22.32;79.78;99950.41;5015849;28;20072;-79
2021/08/11 07:27:48;;;;;;;20.92;15.07;;;;;;;22.50;79.48;99948.56;4999712;28;20045;-78
2021/08/11 07:30:15;;;;;;;17.63;14.75;;;;;;;22.70;79.55;99957.16;5034081;28;20495;-76
2021/08/11 07:32:43;;;;;;;22.67;14.73;;;;;;;22.80;79.33;99941.59;5033708;28;20045;-81
2021/08/11 07:35:13;;;;;;;23.45;13.82;;;;;;;22.71;79.39;99912.03;4999901;28;20037;-80
2021/08/11 07:37:46;;;;;;;17.95;13.70;;;;;;;22.99;79.10;99933.41;5033058;28;20515;-81
2021/08/11 07:40:13;;;;;;;21.60;14.43;;;;;;;23.14;78.45;99936.97;5016477;28;20112;-80
2021/08/11 07:42:40;;;;;;;20.25;13.13;;;;;;;23.13;78.51;99929.97;5017344;28;20088;-80
2021/08/11 07:45:08;;;;;;;24.10;14.70;;;;;;;23.17;77.84;99937.63;5034217;28;20042;-77
2021/08/11 07:47:33;;;;;;;17.63;13.35;;;;;;;23.35;78.08;99939.31;5036478;28;20108;-78
2021/08/11 07:49:59;;;;;;;21.27;13.75;;;;;;;23.43;77.21;99948.53;5035621;28;20033;-78
2021/08/11 07:52:52;;;;;;;16.73;12.23;;;;;;;23.21;77.01;99873.75;5036678;28;20527;-79
2021/08/11 07:56:04;;;;;;;;;;;;;;;;;;;;;
2021/08/11 07:59:09;;;;;;;16.27;12.55;;;;;;;23.37;76.03;99853.31;5037430;28;20429;-79
2021/08/11 08:01:44;;;;;;;16.52;12.35;;;;;;;23.71;74.93;99893.72;5044332;28;20056;-78
2021/08/11 08:04:41;;;;;;;;;;;;;;;;;;;;;
2021/08/11 08:07:59;;;;;;;13.77;12.32;;;;;;;23.96;74.76;99881.53;5015877;28;20048;-79
2021/08/11 08:11:15;;;;;;;17.70;13.55;;;;;;;23.99;74.54;99867.25;5034744;28;20041;-79
2021/08/11 08:13:45;;;;;;;18.40;13.63;;;;;;;24.42;73.84;99916.78;5026861;28;20045;-77
2021/08/11 08:16:16;;;;;;;14.63;11.25;;;;;;;24.48;73.72;99919.03;5038813;28;20041;-79
2021/08/11 08:18:44;;;;;;;18.55;11.30;;;;;;;24.56;73.51;99913.22;5043077;28;20041;-79
2021/08/11 08:21:10;;;;;;;14.38;11.38;;;;;;;24.45;72.63;99900.63;5028119;28;20044;-79
2021/08/11 08:23:36;;;;;;;13.73;10.52;;;;;;;24.52;72.77;99912.56;5043756;28;20046;-77
2021/08/11 08:29:52;;;;;;;14.07;11.40;;;;;;;24.43;71.84;99879.47;5018075;28;20053;-79
2021/08/11 08:32:21;;;;;;;15.63;11.07;;;;;;;24.41;71.40;99876.03;5036868;28;20346;-80
2021/08/11 08:34:56;;;;;;;12.35;9.82;;;;;;;24.28;70.83;99865.38;5004709;28;20037;-79
2021/08/11 08:37:40;;;;;;;12.43;9.50;;;;;;;24.57;70.68;99907.81;5018587;28;20041;-79
2021/08/11 08:40:44;;;;;;;13.45;10.10;;;;;;;23.99;71.06;99808.78;5034839;28;20083;-79
2021/08/11 08:43:13;;;;;;;14.07;11.27;;;;;;;23.61;70.45;99776.56;4998017;28;20049;-80
2021/08/11 08:45:43;;;;;;;11.82;10.10;;;;;;;24.62;70.65;99918.13;5017830;28;20084;-78
2021/08/11 08:48:14;;;;;;;11.75;10.25;;;;;;;24.64;70.22;99897.59;5013678;28;20048;-80
2021/08/11 08:50:47;;;;;;;12.02;9.48;;;;;;;24.24;69.72;99823.13;5021134;28;20131;-79
2021/08/11 08:53:14;;;;;;;13.88;11.23;;;;;;;24.67;69.62;99916.88;5032896;28;20088;-81
2021/08/11 08:55:41;;;;;;;12.90;11.25;;;;;;;24.62;69.61;99911.00;5032741;28;20034;-77
2021/08/11 08:58:08;;;;;;;14.27;11.45;;;;;;;24.49;69.43;99889.69;5034985;28;20057;-78
2021/08/11 09:00:35;;;;;;;16.63;13.50;;;;;;;24.57;69.20;99899.84;5034433;28;20080;-80
2021/08/11 09:03:01;;;;;;;25.80;21.15;;;;;;;24.62;69.13;99905.66;5037968;28;20501;-79
2021/08/11 09:05:30;;;;;;;12.05;9.90;;;;;;;24.25;68.68;99876.19;5038719;28;20060;-81
2021/08/11 09:07:55;;;;;;;17.77;13.48;;;;;;;24.40;69.26;99906.25;5039630;28;20033;-79
2021/08/11 09:10:24;;;;;;;13.35;10.75;;;;;;;24.34;68.84;99907.50;5022368;28;20041;-78
2021/08/11 09:12:54;;;;;;;12.90;10.50;;;;;;;24.26;68.89;99887.69;5022116;28;20071;-81
2021/08/11 09:15:30;;;;;;;12.18;10.77;;;;;;;24.08;68.62;99863.97;5038723;28;20521;-80
2021/08/11 09:18:11;;;;;;;15.93;10.75;;;;;;;24.23;69.00;99899.34;5039379;28;20052;-81
2021/08/11 09:20:37;;;;;;;19.58;10.38;;;;;;;24.16;68.92;99893.59;5024215;28;20060;-78
2021/08/11 09:23:05;;;;;;;17.50;11.77;;;;;;;24.05;68.19;99896.94;5021907;28;20583;-80
2021/08/11 09:25:30;;;;;;;12.23;10.80;;;;;;;23.82;69.06;99877.13;5022398;28;20051;-82
2021/08/11 09:27:59;;;;;;;13.90;9.85;;;;;;;23.60;69.43;99866.97;5035719;28;20132;-82
2021/08/11 09:30:30;;;;;;;11.57;10.18;;;;;;;23.74;69.26;99904.13;5038675;28;20144;-81
2021/08/11 09:33:05;;;;;;;13.30;10.07;;;;;;;23.51;69.72;99859.56;5040844;28;20045;-82
2021/08/11 09:36:43;;;;;;;;;;;;;;;;;;;;;
2021/08/11 09:40:31;;;;;;;12.15;8.68;;;;;;;23.58;70.22;99848.50;4998419;28;20057;-80
2021/08/11 09:43:45;;;;;;;11.07;9.98;;;;;;;23.11;69.66;99768.16;4997488;28;20127;-78
2021/08/11 09:46:49;;;;;;;15.25;10.10;;;;;;;22.84;69.12;99754.81;5022587;28;20041;-78
2021/08/11 09:50:14;;;;;;;11.80;9.63;;;;;;;23.13;69.94;99829.13;5003486;28;20050;-80
2021/08/11 09:53:23;;;;;;;13.55;10.63;;;;;;;23.58;69.94;99908.69;4988150;28;20042;-83
2021/08/11 09:56:05;;;;;;;16.45;10.57;;;;;;;23.61;70.07;99901.38;5007767;28;20038;-81
2021/08/11 09:59:12;;;;;;;13.27;10.77;;;;;;;23.58;70.36;99921.97;5025665;28;20054;-80
2021/08/11 10:01:37;;;;;;;16.23;11.15;;;;;;;22.52;70.59;99784.97;4995467;28;20080;-81
2021/08/11 10:04:22;;;;;;;13.23;9.65;;;;;;;22.77;70.61;99847.16;5020266;28;20053;-83
2021/08/11 10:07:08;;;;;;;11.35;8.23;;;;;;;22.64;71.30;99830.25;5018907;28;20061;-81
2021/08/11 10:09:34;;;;;;;11.88;9.48;;;;;;;23.06;71.02;99891.44;5004285;28;20041;-80
2021/08/11 10:12:28;;;;;;;11.02;9.57;;;;;;;23.36;71.27;99931.25;5003866;28;20496;-80
2021/08/11 10:15:00;;;;;;;10.77;8.95;;;;;;;23.26;70.27;99919.50;5014566;28;20636;-80
2021/08/11 10:17:29;;;;;;;12.05;8.43;;;;;;;23.14;69.83;99910.44;4965271;28;20052;-80
2021/08/11 10:19:58;;;;;;;10.98;9.00;;;;;;;22.99;70.27;99917.50;5022674;28;20049;-80
2021/08/11 10:22:25;;;;;;;10.85;8.63;;;;;;;22.99;70.93;99917.50;5037981;28;20127;-80
2021/08/11 10:24:59;;;;;;;10.85;8.73;;;;;;;23.10;70.85;99928.31;5031939;28;20042;-80
2021/08/11 10:27:25;;;;;;;11.77;8.68;;;;;;;22.75;70.70;99895.91;5018304;28;20049;-80
2021/08/11 10:29:52;;;;;;;12.10;9.50;;;;;;;22.74;71.30;99905.66;5040279;28;20037;-80
2021/08/11 10:32:19;;;;;;;13.07;9.60;;;;;;;22.91;71.72;99906.47;5033749;28;20119;-80
2021/08/11 10:34:50;;;;;;;11.73;9.35;;;;;;;23.02;71.97;99907.56;5018503;28;20468;-80
2021/08/11 10:37:18;;;;;;;11.20;9.25;;;;;;;23.39;72.08;99925.75;5018273;28;20504;-80
2021/08/11 10:39:43;;;;;;;10.77;9.45;;;;;;;23.41;71.43;99901.75;5018702;28;20496;-79
2021/08/11 10:42:17;;;;;;;14.07;9.20;;;;;;;23.45;71.54;99900.63;5002595;28;20077;-79
2021/08/11 10:44:57;;;;;;;11.23;9.18;;;;;;;23.58;71.13;99916.66;5033136;28;20131;-81
2021/08/11 10:47:31;;;;;;;12.02;9.30;;;;;;;23.49;71.38;99891.53;5036629;28;20045;-79
2021/08/11 10:49:59;;;;;;;11.90;8.95;;;;;;;23.73;71.44;99909.56;5039429;28;20040;-80
2021/08/11 10:52:29;;;;;;;11.00;9.23;;;;;;;23.48;70.59;99865.94;5045391;28;20037;-80
2021/08/11 10:55:02;;;;;;;13.00;10.15;;;;;;;23.69;70.57;99903.59;5029210;28;20099;-80
2021/08/11 10:57:48;;;;;;;12.15;8.48;;;;;;;23.53;70.88;99894.84;5003424;28;20163;-79
2021/08/11 11:00:23;;;;;;;12.63;9.68;;;;;;;23.49;70.67;99891.53;5033550;28;20073;-80
2021/08/11 11:02:52;;;;;;;11.85;9.38;;;;;;;23.55;71.20;99887.66;5012420;28;20064;-81
2021/08/11 11:05:21;;;;;;;12.23;10.30;;;;;;;23.56;70.54;99894.66;5014804;28;20038;-80
2021/08/11 11:08:23;;;;;;;14.82;10.15;;;;;;;23.44;70.22;99889.19;4997654;28;20053;-80
2021/08/11 11:10:49;;;;;;;16.52;9.50;;;;;;;23.07;71.03;99805.59;4997038;28;20046;-79
2021/08/11 11:13:29;;;;;;;11.73;9.60;;;;;;;23.75;71.03;99881.94;4999959;28;20038;-81
2021/08/11 11:16:04;;;;;;;10.60;9.25;;;;;;;23.21;70.16;99751.69;5015392;28;20501;-79
2021/08/11 11:18:30;;;;;;;14.18;9.30;;;;;;;24.04;70.30;99873.97;5018676;28;20049;-79
2021/08/11 11:21:00;;;;;;;13.52;10.98;;;;;;;24.13;70.19;99858.41;5017593;28;20187;-80
2021/08/11 11:23:32;;;;;;;12.35;10.38;;;;;;;24.26;69.85;99846.00;5021377;28;20477;-80
2021/08/11 11:25:59;;;;;;;15.75;11.07;;;;;;;24.32;70.30;99837.63;5014597;28;20109;-80
2021/08/11 11:28:53;;;;;;;14.02;10.82;;;;;;;24.30;69.50;99828.03;5016465;28;20140;-79
2021/08/11 11:31:30;;;;;;;14.90;10.82;;;;;;;24.01;69.16;99805.06;5031794;28;20090;-80
2021/08/11 11:34:26;;;;;;;15.50;10.75;;;;;;;23.91;68.98;99825.19;5014951;28;20125;-80
2021/08/11 11:36:55;;;;;;;14.40;10.57;;;;;;;23.70;69.21;99814.13;5029300;28;20521;-80
2021/08/11 11:39:23;;;;;;;15.15;12.77;;;;;;;23.45;69.50;99818.34;5013203;28;20045;-80
2021/08/11 11:42:25;;;;;;;15.27;12.02;;;;;;;23.37;70.02;99840.06;4996523;28;20100;-80
2021/08/11 11:45:00;;;;;;;18.27;12.50;;;;;;;23.34;70.15;99832.28;4997365;28;20052;-81
2021/08/11 11:47:38;;;;;;;15.57;13.20;;;;;;;23.28;70.51;99820.25;4980225;28;20077;-81